Ede, Netherlands
Current Conditions -  °F | °C
As of 2:25 PM on Thursday 30 Oct 2014 (Local Time) from EHDL Reporting Station
Haze Haze  
Wind Chill: 14°   Ceiling: 500
Heat Index: 14°   Visibility: 1.8mi
Dew Point: 13°   Wind: 6mph
Humidity: 94%   Direction: 170°S
Pressure: 30.18"   Gusts: NA
Location:  52.03°N, 5.66°E
Report Text: EHDL 301325Z AUTO 17005KT 3000 BR OVC005 14/13 Q1022 YLO
Loading
Personal Weather Stations






























Interactive Weather Map
Tropical Storm Tracking
New forecast layout! Learn more

10-Day Weather Forecast

Advertisements
Track Severe Weather on mobile